createdAt,value
2023-03-20T04:51:10.652Z,100428.25
2023-03-20T04:54:14.648Z,100428.25
2023-03-20T04:57:25.295Z,100427.16
2023-03-20T05:00:29.045Z,100423.69
2023-03-20T05:03:31.766Z,100429.69
2023-03-20T05:06:35.205Z,100426.87
2023-03-20T05:09:40.969Z,100426.41
2023-03-20T05:12:44.233Z,100428.84
2023-03-20T05:15:47.141Z,100433.94
2023-03-20T05:18:51.428Z,100437.03
2023-03-20T05:21:57.487Z,100436.97
2023-03-20T05:25:01.317Z,100447.25
2023-03-20T05:28:04.511Z,100449.63
2023-03-20T05:31:07.891Z,100449.47
2023-03-20T05:34:11.167Z,100456.94
2023-03-20T05:37:14.161Z,100452.41
2023-03-20T05:40:19.189Z,100456.16
2023-03-20T05:43:22.205Z,100457.31
2023-03-20T05:46:26.267Z,100458.09
2023-03-20T05:49:29.668Z,100454.88
2023-03-20T05:52:36.365Z,100443.16
2023-03-20T05:55:41.424Z,100457.78
2023-03-20T05:58:44.551Z,100459.06
2023-03-20T06:01:50.491Z,100456.34
2023-03-20T06:04:55.915Z,100463.28
2023-03-20T06:07:59.752Z,100463.00
2023-03-20T06:11:04.091Z,100472.03
2023-03-20T06:14:06.956Z,100478.72
2023-03-20T06:17:10.855Z,100478.31
2023-03-20T06:20:13.594Z,100473.34
2023-03-20T06:23:16.521Z,100485.00
2023-03-20T06:26:18.894Z,100477.44
2023-03-20T06:29:22.968Z,100478.56
2023-03-20T06:32:27.857Z,100478.81
2023-03-20T06:35:31.994Z,100475.19
2023-03-20T06:38:34.559Z,100470.59
2023-03-20T06:41:39.865Z,100475.00
2023-03-20T06:44:43.341Z,100486.94
2023-03-20T06:47:49.606Z,100481.25
2023-03-20T06:50:53.109Z,100477.63
2023-03-20T06:53:57.568Z,100478.03
2023-03-20T06:57:00.600Z,100474.63
2023-03-20T07:00:05.466Z,100476.97
2023-03-20T07:03:08.678Z,100484.69
2023-03-20T07:06:13.418Z,100480.53
2023-03-20T07:09:19.293Z,100473.34
2023-03-20T07:12:24.321Z,100477.63
2023-03-20T07:15:29.496Z,100478.94
2023-03-20T07:18:32.894Z,100475.66
2023-03-20T07:21:35.444Z,100482.25
2023-03-20T07:24:38.442Z,100490.06
2023-03-20T07:27:41.065Z,100477.75
2023-03-20T07:30:43.894Z,100471.22
2023-03-20T07:33:46.770Z,100484.09
2023-03-20T07:36:50.322Z,100480.19
2023-03-20T07:39:53.005Z,100477.00
2023-03-20T07:43:01.975Z,100476.28
2023-03-20T07:46:08.033Z,100481.09
2023-03-20T07:49:11.864Z,100482.81
2023-03-20T07:52:14.673Z,100480.19
2023-03-20T07:55:18.698Z,100481.88
2023-03-20T07:58:21.762Z,100486.34
2023-03-20T08:01:24.962Z,100483.75
2023-03-20T08:04:28.949Z,100481.91
2023-03-20T08:07:32.026Z,100495.94
2023-03-20T08:10:34.869Z,100492.34
2023-03-20T08:13:37.432Z,100486.56
2023-03-20T08:16:40.216Z,100492.81
2023-03-20T08:19:42.635Z,100491.91
2023-03-20T08:22:46.884Z,100497.66
2023-03-20T08:25:50.186Z,100501.84
2023-03-20T08:28:52.890Z,100503.53
2023-03-20T08:31:56.356Z,100502.75
2023-03-20T08:34:59.052Z,100500.50
2023-03-20T08:38:01.898Z,100501.87
2023-03-20T08:41:06.495Z,100501.09
2023-03-20T08:44:09.271Z,100498.44
2023-03-20T08:47:12.207Z,100504.34
2023-03-20T08:50:14.887Z,100504.06
2023-03-20T08:53:17.623Z,100511.47
2023-03-20T08:56:20.126Z,100513.72
2023-03-20T08:59:23.024Z,100509.09
2023-03-20T09:02:26.156Z,100511.19
2023-03-20T09:05:28.952Z,100507.59
2023-03-20T09:08:32.050Z,100510.44
2023-03-20T09:11:35.376Z,100511.66
2023-03-20T09:14:38.405Z,100514.00
2023-03-20T09:17:41.068Z,100516.59
2023-03-20T09:20:43.675Z,100510.75
2023-03-20T09:23:47.440Z,100511.03
2023-03-20T09:26:49.907Z,100510.34
2023-03-20T09:29:52.392Z,100518.06
2023-03-20T09:32:55.075Z,100515.53
2023-03-20T09:35:58.364Z,100513.50
2023-03-20T09:39:00.973Z,100511.50
2023-03-20T09:42:31.406Z,100508.41
2023-03-20T09:45:47.864Z,100505.84
2023-03-20T09:49:15.176Z,100510.03
2023-03-20T09:52:30.314Z,100501.66
2023-03-20T09:55:39.805Z,100502.66
2023-03-20T09:58:43.130Z,100508.44
2023-03-20T10:01:48.336Z,100506.59
2023-03-20T10:04:55.429Z,100508.56
2023-03-20T10:08:02.177Z,100495.34
2023-03-20T10:11:43.444Z,100504.53
2023-03-20T10:15:16.603Z,100505.28
2023-03-20T10:18:29.624Z,100505.31
2023-03-20T10:21:47.055Z,100502.47
2023-03-20T10:25:04.385Z,100508.66
2023-03-20T10:28:28.181Z,100506.28
2023-03-20T10:31:33.908Z,100495.53
2023-03-20T10:34:57.926Z,100494.06
2023-03-20T10:38:28.230Z,100497.91
2023-03-20T10:41:35.308Z,100494.22
2023-03-20T10:44:46.403Z,100496.16
2023-03-20T10:47:53.451Z,100476.91
2023-03-20T10:50:59.662Z,100482.34
2023-03-20T10:54:06.317Z,100476.78
2023-03-20T10:57:23.305Z,100470.13
2023-03-20T11:00:27.167Z,100477.37
2023-03-20T11:03:34.193Z,100479.25
2023-03-20T11:07:01.177Z,100474.81
2023-03-20T11:10:04.566Z,100473.09
2023-03-20T11:13:43.519Z,100463.78
2023-03-20T11:16:55.507Z,100459.16
2023-03-20T11:20:04.959Z,100451.13
2023-03-20T11:23:08.541Z,100444.88
2023-03-20T11:26:18.387Z,100453.44
2023-03-20T11:29:30.441Z,100442.69
2023-03-20T11:32:46.585Z,100435.97
2023-03-20T11:35:55.016Z,100435.09
2023-03-20T11:39:17.470Z,100430.88
2023-03-20T11:42:24.658Z,100418.78
2023-03-20T11:45:34.070Z,100424.91
2023-03-20T11:48:40.748Z,100420.56
2023-03-20T11:51:43.372Z,100428.59
2023-03-20T11:54:53.025Z,100427.41
2023-03-20T11:58:00.325Z,100423.91
2023-03-20T12:01:04.463Z,100432.38
2023-03-20T12:04:11.293Z,100430.72
2023-03-20T12:07:27.312Z,100416.50
2023-03-20T12:10:39.498Z,100413.28
2023-03-20T12:13:44.613Z,100426.75
2023-03-20T12:16:51.421Z,100418.06
2023-03-20T12:19:59.749Z,100411.47
2023-03-20T12:23:13.414Z,100408.31
2023-03-20T12:26:24.762Z,100406.28
2023-03-20T12:29:36.479Z,100406.97
2023-03-20T12:32:46.065Z,100407.84
2023-03-20T12:35:52.201Z,100404.00
2023-03-20T12:38:55.380Z,100401.97
2023-03-20T12:42:16.142Z,100409.09
2023-03-20T12:45:44.959Z,100409.78
2023-03-20T12:49:11.410Z,100402.44
2023-03-20T12:52:41.177Z,100397.00
2023-03-20T12:56:23.913Z,100396.28
2023-03-20T12:59:33.040Z,100393.53
2023-03-20T13:02:44.535Z,100390.22
2023-03-20T13:06:19.247Z,100382.87
2023-03-20T13:10:21.503Z,100382.16
2023-03-20T13:13:48.588Z,100377.94
2023-03-20T13:17:30.876Z,100374.94
2023-03-20T13:20:47.060Z,100371.69
2023-03-20T13:24:03.785Z,100364.09
2023-03-20T13:27:21.541Z,100359.88
2023-03-20T13:30:35.484Z,100365.31
2023-03-20T13:34:01.082Z,100371.09
2023-03-20T13:37:22.752Z,100359.13
2023-03-20T13:40:30.302Z,100360.34
2023-03-20T13:43:45.939Z,100354.19
2023-03-20T13:46:59.378Z,100345.63
2023-03-20T13:50:19.106Z,100347.31
2023-03-20T13:53:30.329Z,100344.69
2023-03-20T13:56:48.182Z,100346.50
2023-03-20T14:00:06.067Z,100346.72
2023-03-20T14:03:35.841Z,100354.94
2023-03-20T14:06:50.450Z,100354.22
2023-03-20T14:09:55.655Z,100350.25
2023-03-20T14:13:04.743Z,100348.31
2023-03-20T14:16:09.777Z,100352.53
2023-03-20T14:19:25.497Z,100346.38
2023-03-20T14:22:35.168Z,100349.03
2023-03-20T14:25:41.980Z,100346.84
2023-03-20T14:29:10.062Z,100349.63
2023-03-20T14:32:15.478Z,100344.22
2023-03-20T14:35:18.068Z,100338.75
2023-03-20T14:38:26.406Z,100344.44
2023-03-20T14:41:39.605Z,100339.13
2023-03-20T14:44:50.903Z,100337.94
2023-03-20T14:48:24.712Z,100344.31
2023-03-20T14:51:37.903Z,100331.56
2023-03-20T14:54:41.697Z,100329.13
2023-03-20T14:57:55.689Z,100332.53
2023-03-20T15:01:14.464Z,100330.22
2023-03-20T15:04:29.177Z,100331.44
2023-03-20T15:07:38.926Z,100327.94
2023-03-20T15:10:49.952Z,100328.78
2023-03-20T15:13:54.264Z,100321.06
2023-03-20T15:16:58.974Z,100320.56
2023-03-20T15:20:07.866Z,100323.97
2023-03-20T15:23:10.674Z,100316.72
2023-03-20T15:26:19.136Z,100327.78
2023-03-20T15:29:22.033Z,100322.97
2023-03-20T15:32:25.296Z,100333.41
2023-03-20T15:35:28.099Z,100324.94
2023-03-20T15:38:34.264Z,100323.22
2023-03-20T15:41:38.320Z,100320.94
2023-03-20T15:44:43.063Z,100325.75
2023-03-20T15:47:45.472Z,100322.72
2023-03-20T15:51:05.050Z,100322.44
2023-03-20T15:54:08.099Z,100311.19
2023-03-20T15:57:19.516Z,100310.25
2023-03-20T16:00:24.549Z,100320.88
2023-03-20T16:03:28.906Z,100320.44
2023-03-20T16:06:31.708Z,100315.28
2023-03-20T16:09:43.544Z,100320.75
2023-03-20T16:12:52.960Z,100324.09
2023-03-20T16:15:55.954Z,100324.44
2023-03-20T16:18:59.438Z,100328.13
2023-03-20T16:22:25.804Z,100341.19
2023-03-20T16:25:28.583Z,100339.31
2023-03-20T16:28:31.499Z,100338.97
2023-03-20T16:31:42.533Z,100347.75
2023-03-20T16:34:51.179Z,100344.44
2023-03-20T16:37:59.444Z,100344.06
2023-03-20T16:41:33.669Z,100340.25
2023-03-20T16:44:36.949Z,100338.03
2023-03-20T16:47:40.681Z,100346.00
2023-03-20T16:50:44.138Z,100343.59
2023-03-20T17:47:22.638Z,100376.22
2023-03-20T17:50:27.240Z,100376.22
